Time;durP1;ratioP1;P1;durP2;ratioP2;P2;SDS_P1;SDS_P2;PMS_P1;PMS_P2;Temp;Humidity;BMP_temperature;BMP_pressure;BME280_temperature;BME280_humidity;BME280_pressure;Samples;Min_cycle;Max_cycle;Signal;HPM_P1;HPM_P2
2023/06/07 00:01:52;;;;;;;10.20;7.20;;;;;;;38.36;38.71;101170.16;6181575;23;20467;-91
2023/06/07 00:04:18;;;;;;;13.77;7.63;;;;;;;38.46;38.57;101174.56;6182625;23;20176;-89
2023/06/07 00:06:45;;;;;;;15.17;7.90;;;;;;;38.26;38.94;101183.09;6182691;23;20394;-89
2023/06/07 00:09:12;;;;;;;13.10;7.30;;;;;;;38.39;38.80;101180.41;6183020;23;20443;-87
2023/06/07 00:11:38;;;;;;;10.33;6.70;;;;;;;38.31;38.89;101166.75;6182325;23;20431;-87
2023/06/07 00:14:04;;;;;;;12.60;7.97;;;;;;;38.44;38.68;101174.88;6182341;23;20478;-90
2023/06/07 00:16:31;;;;;;;11.30;7.63;;;;;;;38.22;38.74;101160.38;6183021;23;20439;-87
2023/06/07 00:18:57;;;;;;;12.00;6.87;;;;;;;38.28;38.90;101159.22;6183117;23;20381;-90
2023/06/07 00:21:24;;;;;;;11.13;8.07;;;;;;;38.48;38.63;101179.69;6182765;23;20391;-88
2023/06/07 00:23:50;;;;;;;9.77;6.70;;;;;;;38.28;38.76;101164.63;6182827;23;20440;-87
2023/06/07 00:26:16;;;;;;;16.30;7.10;;;;;;;38.38;38.85;101167.16;6183804;23;20383;-90
2023/06/07 00:28:42;;;;;;;11.63;6.03;;;;;;;38.21;38.79;101166.91;6183839;23;20392;-91
2023/06/07 00:31:08;;;;;;;11.20;6.23;;;;;;;38.39;38.66;101174.97;6183171;23;20771;-91
2023/06/07 00:33:34;;;;;;;9.83;6.00;;;;;;;38.32;39.14;101176.50;6183455;23;20157;-89
2023/06/07 00:36:00;;;;;;;22.00;7.40;;;;;;;38.31;38.69;101175.69;6183259;23;20384;-90
2023/06/07 00:38:27;;;;;;;14.17;7.20;;;;;;;38.29;38.74;101166.25;6158746;23;20167;-91
2023/06/07 00:40:53;;;;;;;16.53;7.43;;;;;;;38.22;38.79;101161.19;6183074;23;20884;-88
2023/06/07 00:43:19;;;;;;;10.90;6.53;;;;;;;38.33;38.53;101164.53;6159182;23;20427;-88
2023/06/07 00:45:45;;;;;;;12.00;7.37;;;;;;;38.23;38.68;101162.00;6183157;23;20392;-90
2023/06/07 00:48:11;;;;;;;12.47;5.50;;;;;;;38.35;38.37;101163.13;6184168;23;20176;-90
2023/06/07 00:50:38;;;;;;;11.07;5.40;;;;;;;38.13;38.48;101158.41;6185228;23;20384;-90
2023/06/07 00:53:04;;;;;;;10.03;5.80;;;;;;;38.14;38.54;101162.72;6185099;23;20432;-89
2023/06/07 00:55:31;;;;;;;10.03;6.50;;;;;;;38.32;38.05;101160.22;6184848;23;20408;-90
2023/06/07 00:57:58;;;;;;;10.47;7.10;;;;;;;38.40;38.24;101162.22;6185192;23;20391;-89
2023/06/07 01:00:24;;;;;;;14.53;6.83;;;;;;;38.42;38.02;101165.44;6185183;23;20415;-87
2023/06/07 01:02:51;;;;;;;9.50;5.50;;;;;;;38.47;37.77;101151.78;6185170;23;20423;-88
2023/06/07 01:05:20;;;;;;;10.73;5.40;;;;;;;38.43;37.62;101153.50;6187020;23;20756;-88
2023/06/07 01:07:47;;;;;;;11.47;6.70;;;;;;;38.37;38.48;101150.09;6185413;23;20419;-88
2023/06/07 01:10:14;;;;;;;9.70;6.70;;;;;;;38.41;38.03;101155.69;6185126;23;20398;-88
2023/06/07 01:12:44;;;;;;;14.77;7.20;;;;;;;38.43;37.82;101157.03;6185051;23;20435;-87
2023/06/07 01:15:13;;;;;;;11.60;7.00;;;;;;;38.33;38.18;101151.00;6185208;23;20384;-88
2023/06/07 01:17:42;;;;;;;12.23;7.80;;;;;;;38.31;37.88;101147.78;6178584;23;20385;-87
2023/06/07 01:20:17;;;;;;;13.40;8.00;;;;;;;38.50;38.02;101147.66;6185338;23;20391;-89
2023/06/07 01:22:46;;;;;;;13.30;8.93;;;;;;;38.53;37.70;101147.84;6184996;23;20950;-88
2023/06/07 01:25:13;;;;;;;13.57;8.13;;;;;;;38.49;37.83;101155.00;6185169;23;20392;-88
2023/06/07 01:27:43;;;;;;;14.63;6.80;;;;;;;38.38;37.73;101138.16;6184632;23;20892;-87
2023/06/07 01:30:11;;;;;;;13.47;8.00;;;;;;;38.35;37.93;101141.44;6185225;23;20395;-88
2023/06/07 01:32:39;;;;;;;13.60;9.27;;;;;;;38.36;38.11;101131.41;6184754;23;20506;-88
2023/06/07 01:35:07;;;;;;;16.70;10.10;;;;;;;38.43;38.31;101131.81;6185226;23;20376;-88
2023/06/07 01:37:35;;;;;;;16.23;11.50;;;;;;;38.48;37.97;101128.97;6184942;23;20394;-88
2023/06/07 01:40:06;;;;;;;17.90;12.80;;;;;;;38.51;38.00;101124.88;6185103;23;20381;-88
2023/06/07 01:42:38;;;;;;;17.23;12.07;;;;;;;38.54;37.66;101130.47;6185315;23;20388;-87
2023/06/07 01:45:06;;;;;;;19.83;13.50;;;;;;;38.53;37.70;101133.50;6161469;23;20388;-90
2023/06/07 01:47:33;;;;;;;18.30;12.33;;;;;;;38.41;38.07;101129.41;6184213;23;20388;-90
2023/06/07 01:49:59;;;;;;;16.53;10.80;;;;;;;38.41;37.91;101121.25;6185070;23;20476;-89
2023/06/07 01:52:27;;;;;;;22.80;12.57;;;;;;;38.32;37.80;101120.38;6184615;23;20440;-90
2023/06/07 01:54:54;;;;;;;14.80;10.27;;;;;;;38.25;38.28;101121.88;6184908;23;20398;-90
2023/06/07 01:57:39;;;;;;;12.30;9.00;;;;;;;38.16;38.50;101114.44;6185024;23;20388;-90
2023/06/07 02:00:06;;;;;;;15.37;8.47;;;;;;;38.38;38.22;101123.78;6184819;23;20411;-89
2023/06/07 02:02:31;;;;;;;12.57;8.40;;;;;;;38.44;38.29;101122.59;6185026;23;20439;-90
2023/06/07 02:05:02;;;;;;;11.80;7.40;;;;;;;38.43;38.28;101129.13;6185079;23;20388;-93
2023/06/07 02:07:35;;;;;;;15.47;8.43;;;;;;;38.27;38.24;101104.22;6184558;23;20180;-91
2023/06/07 02:10:03;;;;;;;14.97;9.27;;;;;;;38.33;38.15;101104.94;6185140;23;20391;-91
2023/06/07 02:12:31;;;;;;;16.23;7.87;;;;;;;38.53;37.70;101120.75;6184425;23;20511;-92
2023/06/07 02:15:00;;;;;;;14.67;8.47;;;;;;;38.42;38.01;101127.47;6184368;23;20411;-92
2023/06/07 02:17:28;;;;;;;13.67;6.77;;;;;;;38.42;38.09;101113.94;6184847;23;20388;-92
2023/06/07 02:19:54;;;;;;;16.27;8.27;;;;;;;38.54;37.84;101121.53;6184637;23;20428;-92
2023/06/07 02:22:20;;;;;;;11.67;7.40;;;;;;;38.52;38.16;101121.06;6187241;23;20479;-92
2023/06/07 02:24:47;;;;;;;14.17;8.27;;;;;;;38.40;37.98;101116.94;6189374;23;20469;-92
2023/06/07 02:27:13;;;;;;;11.13;8.13;;;;;;;38.38;38.20;101104.81;6190106;23;20208;-92
2023/06/07 02:29:39;;;;;;;13.00;7.40;;;;;;;38.51;38.09;101104.00;6189020;23;20391;-93
2023/06/07 02:32:05;;;;;;;15.43;7.93;;;;;;;38.47;37.72;101111.13;6189102;23;20473;-91
2023/06/07 02:34:34;;;;;;;19.83;7.03;;;;;;;38.47;38.35;101116.53;6189092;23;20383;-88
2023/06/07 02:37:00;;;;;;;11.10;8.40;;;;;;;38.38;37.99;101112.97;6189461;23;20395;-88
2023/06/07 02:39:26;;;;;;;12.23;8.43;;;;;;;38.34;37.72;101101.91;6188935;23;20502;-90
2023/06/07 02:41:52;;;;;;;16.70;8.40;;;;;;;38.35;38.18;101097.28;6189213;23;20210;-91
2023/06/07 02:44:18;;;;;;;12.87;8.17;;;;;;;38.36;38.19;101115.94;6189008;23;20474;-89
2023/06/07 02:46:44;;;;;;;15.50;9.53;;;;;;;38.31;38.22;101107.94;6189077;23;20176;-92
2023/06/07 02:49:10;;;;;;;13.40;8.97;;;;;;;38.35;38.35;101108.13;6189489;23;20396;-93
2023/06/07 02:51:37;;;;;;;18.80;10.20;;;;;;;38.35;38.21;101100.78;6189290;23;20466;-93
2023/06/07 02:54:03;;;;;;;15.40;8.80;;;;;;;38.27;38.33;101098.00;6189693;23;20393;-93
2023/06/07 02:56:32;;;;;;;14.50;9.07;;;;;;;38.22;38.29;101081.81;6189482;23;20474;-91
2023/06/07 02:58:58;;;;;;;15.93;8.63;;;;;;;38.33;38.17;101085.97;6189274;23;20412;-92
2023/06/07 03:01:27;;;;;;;12.47;9.33;;;;;;;38.36;38.31;101101.59;6189482;23;20847;-92
2023/06/07 03:03:53;;;;;;;16.47;9.60;;;;;;;38.33;38.44;101083.25;6189655;23;20489;-92
2023/06/07 03:06:19;;;;;;;15.87;11.10;;;;;;;38.43;38.10;101094.69;6188966;23;20465;-92
2023/06/07 03:08:45;;;;;;;15.63;8.53;;;;;;;38.49;38.15;101089.13;6189142;23;20864;-91
2023/06/07 03:11:11;;;;;;;17.67;10.17;;;;;;;38.44;37.92;101093.56;6188872;23;20835;-93
2023/06/07 03:13:37;;;;;;;16.77;9.33;;;;;;;38.51;38.02;101095.06;6188824;23;20210;-92
2023/06/07 03:16:03;;;;;;;12.47;9.20;;;;;;;38.51;37.58;101084.22;6188899;23;20152;-92
2023/06/07 03:18:29;;;;;;;12.00;8.00;;;;;;;38.57;37.67;101094.66;6189085;23;20403;-91
2023/06/07 03:20:55;;;;;;;17.07;9.23;;;;;;;38.41;37.82;101067.06;6188872;23;20402;-91
2023/06/07 03:23:21;;;;;;;18.80;10.10;;;;;;;38.48;37.87;101101.06;6183798;23;20197;-92
2023/06/07 03:25:47;;;;;;;15.67;10.33;;;;;;;38.53;37.79;101100.97;6183888;23;20380;-93
2023/06/07 03:28:13;;;;;;;15.13;10.00;;;;;;;38.54;37.78;101091.72;6185192;23;20404;-88
2023/06/07 03:30:40;;;;;;;12.93;8.70;;;;;;;38.59;37.81;101099.75;6183952;23;20446;-89
2023/06/07 03:33:06;;;;;;;14.33;10.17;;;;;;;38.61;37.81;101100.25;6184082;23;20502;-90
2023/06/07 03:35:31;;;;;;;16.50;10.33;;;;;;;38.59;37.71;101097.03;6185050;23;20888;-90
2023/06/07 03:37:57;;;;;;;20.00;10.87;;;;;;;38.59;37.85;101099.75;6183733;23;20152;-91
2023/06/07 03:40:23;;;;;;;16.00;9.97;;;;;;;38.65;37.48;101103.94;6183711;23;20180;-91
2023/06/07 03:42:49;;;;;;;19.93;12.80;;;;;;;38.65;37.57;101107.47;6183478;23;20446;-90
2023/06/07 03:45:15;;;;;;;14.87;11.03;;;;;;;38.36;37.77;101085.34;6158812;23;20500;-90
2023/06/07 03:47:41;;;;;;;15.27;11.23;;;;;;;38.54;37.56;101100.66;6183799;23;20775;-90
2023/06/07 03:50:07;;;;;;;20.03;13.63;;;;;;;38.43;37.62;101110.94;6183310;23;20171;-90
2023/06/07 03:52:33;;;;;;;19.83;11.27;;;;;;;38.39;38.12;101106.44;6183719;23;20573;-89
2023/06/07 03:54:59;;;;;;;15.27;11.70;;;;;;;38.52;37.86;101111.00;6183382;23;20390;-90
2023/06/07 03:57:27;;;;;;;19.53;15.63;;;;;;;38.40;37.81;101092.56;6185367;23;20183;-90
2023/06/07 03:59:52;;;;;;;19.23;13.70;;;;;;;38.46;37.94;101108.72;6183978;23;20388;-89
2023/06/07 04:02:18;;;;;;;20.13;11.50;;;;;;;38.50;37.69;101110.53;6183460;23;20411;-90
2023/06/07 04:04:44;;;;;;;17.90;10.23;;;;;;;38.37;37.58;101103.22;6183301;23;20633;-90
2023/06/07 04:07:11;;;;;;;17.73;10.83;;;;;;;38.37;37.69;101111.34;6183558;23;20176;-90
2023/06/07 04:09:38;;;;;;;15.70;8.63;;;;;;;38.40;37.84;101108.03;6183874;23;20227;-91
2023/06/07 04:12:05;;;;;;;16.30;12.60;;;;;;;38.30;38.04;101103.59;6183466;23;20448;-92
2023/06/07 04:14:31;;;;;;;15.57;11.13;;;;;;;38.27;37.96;101098.00;6182947;23;20392;-93
2023/06/07 04:16:57;;;;;;;16.80;9.33;;;;;;;38.46;37.74;101106.81;6184004;23;20391;-93
2023/06/07 04:19:23;;;;;;;14.87;9.80;;;;;;;38.39;37.96;101090.97;6183262;23;20153;-92
2023/06/07 04:21:49;;;;;;;13.00;8.47;;;;;;;38.28;37.78;101099.59;6183910;23;20857;-92
2023/06/07 04:24:16;;;;;;;12.33;9.00;;;;;;;38.40;37.77;101100.69;6213118;23;20465;-92
2023/06/07 04:26:42;;;;;;;20.90;9.93;;;;;;;38.45;37.59;101110.63;6190980;23;20719;-92
2023/06/07 04:29:08;;;;;;;15.33;10.40;;;;;;;38.51;37.74;101108.63;6190504;23;20533;-92
2023/06/07 04:31:34;;;;;;;17.23;12.30;;;;;;;38.49;37.75;101113.53;6190251;23;20471;-89
2023/06/07 04:34:04;;;;;;;20.00;11.63;;;;;;;38.46;37.81;101114.94;6189978;23;20386;-90
2023/06/07 04:36:30;;;;;;;15.80;11.90;;;;;;;38.37;38.07;101124.91;6190699;23;20473;-90
2023/06/07 04:38:58;;;;;;;22.60;13.07;;;;;;;38.49;37.85;101138.75;6190406;23;20382;-90
2023/06/07 04:41:32;;;;;;;18.80;11.00;;;;;;;38.42;37.83;101132.91;6190794;23;20911;-89
2023/06/07 04:44:03;;;;;;;17.50;9.07;;;;;;;38.44;37.75;101144.25;6190213;23;20470;-90
2023/06/07 04:46:30;;;;;;;16.37;10.17;;;;;;;38.41;38.03;101159.22;6190516;23;20391;-90
2023/06/07 04:48:58;;;;;;;14.33;10.00;;;;;;;38.41;38.02;101147.56;6190443;23;20383;-89
2023/06/07 04:51:26;;;;;;;14.30;9.80;;;;;;;38.29;37.83;101134.53;6190395;23;20423;-90
2023/06/07 04:53:58;;;;;;;17.27;11.43;;;;;;;38.43;38.00;101146.19;6190555;23;20386;-89
2023/06/07 04:56:27;;;;;;;16.53;8.27;;;;;;;38.40;37.97;101137.84;6187101;23;20394;-90
2023/06/07 04:58:55;;;;;;;14.60;9.63;;;;;;;38.33;37.87;101132.81;6191443;23;20392;-91
2023/06/07 05:01:22;;;;;;;17.00;10.13;;;;;;;38.37;38.20;101152.00;6190213;23;20383;-89
2023/06/07 05:03:51;;;;;;;13.83;9.30;;;;;;;38.28;38.20;101142.97;6190615;23;20410;-90
2023/06/07 05:06:18;;;;;;;15.00;10.43;;;;;;;38.40;38.08;101152.19;6190393;23;20442;-90
2023/06/07 05:08:45;;;;;;;17.20;10.70;;;;;;;38.47;37.98;101162.63;6190688;23;20414;-90
2023/06/07 05:11:11;;;;;;;19.50;11.53;;;;;;;38.37;38.09;101158.22;6189958;23;20458;-90
2023/06/07 05:13:37;;;;;;;12.40;9.30;;;;;;;38.30;38.13;101157.81;6190267;23;20879;-90
2023/06/07 05:16:02;;;;;;;14.83;10.27;;;;;;;38.44;38.21;101180.31;6190229;23;20162;-90
2023/06/07 05:18:28;;;;;;;15.03;10.60;;;;;;;38.44;38.43;101168.66;6189637;23;20387;-91
2023/06/07 05:20:54;;;;;;;18.50;11.07;;;;;;;38.54;38.43;101179.28;6190383;23;20384;-89
2023/06/07 05:23:20;;;;;;;20.13;12.37;;;;;;;38.53;37.69;101172.25;6184800;23;20447;-90
2023/06/07 05:25:47;;;;;;;12.93;8.93;;;;;;;38.53;37.88;101166.81;6185012;23;20384;-90
2023/06/07 05:28:13;;;;;;;17.10;11.80;;;;;;;38.62;37.52;101167.72;6184960;23;20231;-89
2023/06/07 05:30:39;;;;;;;13.40;9.60;;;;;;;38.62;37.87;101173.16;6184832;23;20411;-89
2023/06/07 05:33:06;;;;;;;19.87;12.60;;;;;;;38.57;37.79;101178.69;6185259;23;20428;-89
2023/06/07 05:35:32;;;;;;;22.13;13.20;;;;;;;38.56;37.75;101174.38;6184581;23;20914;-89
2023/06/07 05:37:58;;;;;;;17.40;10.83;;;;;;;38.47;37.81;101181.59;6184951;23;20415;-90
2023/06/07 05:40:24;;;;;;;16.70;10.80;;;;;;;38.45;37.58;101181.09;6184878;23;20384;-89
2023/06/07 05:42:50;;;;;;;17.77;11.33;;;;;;;38.52;37.74;101183.41;6184614;23;20388;-90
2023/06/07 05:45:17;;;;;;;13.77;9.03;;;;;;;38.50;38.06;101189.13;6184712;23;20387;-91
2023/06/07 05:47:46;;;;;;;16.10;10.63;;;;;;;38.50;37.70;101189.13;6184722;23;20927;-89
2023/06/07 05:50:12;;;;;;;12.20;8.80;;;;;;;38.39;37.60;101179.59;6184881;23;20380;-90
2023/06/07 05:52:40;;;;;;;15.83;9.83;;;;;;;38.53;37.59;101193.13;6185035;23;20432;-90
2023/06/07 05:55:07;;;;;;;15.90;10.10;;;;;;;38.57;37.65;101197.66;6184784;23;20408;-90
2023/06/07 05:57:34;;;;;;;13.10;10.07;;;;;;;38.64;37.35;101195.34;6184518;23;20384;-89
2023/06/07 06:00:00;;;;;;;15.67;9.80;;;;;;;38.59;37.64;101200.84;6184864;23;20419;-92
2023/06/07 06:02:29;;;;;;;16.77;10.17;;;;;;;38.52;37.96;101202.38;6184234;23;20743;-90
2023/06/07 06:04:58;;;;;;;17.70;12.57;;;;;;;38.56;37.78;101201.47;6185064;23;20396;-90
2023/06/07 06:07:23;;;;;;;17.67;11.00;;;;;;;38.56;38.00;101206.09;6159524;23;20841;-90
2023/06/07 06:09:51;;;;;;;17.20;11.30;;;;;;;38.47;37.72;101197.84;6184885;23;20395;-90
2023/06/07 06:12:17;;;;;;;16.77;11.70;;;;;;;38.37;37.86;101206.22;6184863;23;20450;-89
2023/06/07 06:14:43;;;;;;;17.40;11.20;;;;;;;38.40;37.97;101203.69;6183988;23;20392;-90
2023/06/07 06:17:09;;;;;;;25.53;12.30;;;;;;;38.39;38.08;101210.22;6184831;23;20181;-89
2023/06/07 06:19:35;;;;;;;14.70;10.60;;;;;;;38.49;38.41;101216.50;6183933;23;20491;-89
2023/06/07 06:22:01;;;;;;;24.77;11.50;;;;;;;38.55;38.17;101213.44;6184315;23;20177;-90
2023/06/07 06:24:27;;;;;;;19.97;12.07;;;;;;;38.60;37.95;101213.31;6183955;23;20494;-89
2023/06/07 06:26:53;;;;;;;13.43;10.03;;;;;;;38.47;37.98;101205.97;6184187;23;20499;-89
2023/06/07 06:29:19;;;;;;;19.93;12.17;;;;;;;38.54;37.97;101203.66;6184596;23;20162;-90
2023/06/07 06:31:44;;;;;;;18.73;11.37;;;;;;;38.42;37.59;101198.75;6184238;23;20772;-90
2023/06/07 06:34:12;;;;;;;19.80;11.77;;;;;;;38.42;37.73;101223.13;6185078;23;20156;-90
2023/06/07 06:36:38;;;;;;;19.23;11.30;;;;;;;38.55;37.85;101234.28;6184694;23;20450;-91
2023/06/07 06:39:04;;;;;;;19.60;12.27;;;;;;;38.68;37.95;101244.34;6184237;23;20404;-90
2023/06/07 06:41:30;;;;;;;16.67;10.00;;;;;;;38.69;38.10;101235.91;6184826;23;20387;-92
2023/06/07 06:43:57;;;;;;;20.93;13.33;;;;;;;38.79;37.46;101224.06;6184272;23;20490;-89
2023/06/07 06:46:23;;;;;;;18.73;12.67;;;;;;;38.79;37.76;101225.97;6184027;23;20451;-88
2023/06/07 06:48:49;;;;;;;18.87;10.90;;;;;;;38.81;37.57;101231.91;6184480;23;20380;-90
2023/06/07 06:51:15;;;;;;;15.47;10.20;;;;;;;38.73;37.44;101227.97;6183939;23;20550;-91
2023/06/07 06:53:41;;;;;;;18.63;10.93;;;;;;;38.80;37.88;101233.03;6184735;23;20388;-90
2023/06/07 06:56:07;;;;;;;16.63;9.73;;;;;;;38.92;37.62;101234.09;6184208;23;20385;-90
2023/06/07 06:58:34;;;;;;;15.40;9.37;;;;;;;38.95;37.27;101224.53;6184189;23;20393;-90
2023/06/07 07:01:05;;;;;;;16.73;10.73;;;;;;;38.92;37.12;101215.13;6184555;23;20390;-90
2023/06/07 07:03:31;;;;;;;13.70;9.60;;;;;;;39.00;37.54;101213.59;6184060;23;20424;-88
2023/06/07 07:05:57;;;;;;;16.80;10.73;;;;;;;38.95;37.29;101214.50;6184856;23;20439;-90
2023/06/07 07:08:24;;;;;;;19.33;11.93;;;;;;;38.94;37.06;101217.50;6184191;23;20384;-91
2023/06/07 07:10:50;;;;;;;20.00;10.30;;;;;;;39.02;37.30;101229.53;6184585;23;20776;-90
2023/06/07 07:13:16;;;;;;;16.63;10.67;;;;;;;38.94;37.36;101229.16;6184148;23;20920;-90
2023/06/07 07:15:42;;;;;;;20.20;11.60;;;;;;;39.04;37.03;101236.28;6184914;23;20387;-90
2023/06/07 07:18:08;;;;;;;14.53;11.47;;;;;;;39.15;37.39;101232.22;6183628;23;20384;-85
2023/06/07 07:20:34;;;;;;;16.03;9.57;;;;;;;39.31;36.96;101232.72;6183867;23;20384;-88
2023/06/07 07:23:02;;;;;;;15.30;10.10;;;;;;;39.40;36.78;101230.06;6183361;23;20435;-90
2023/06/07 07:25:28;;;;;;;15.60;12.20;;;;;;;39.44;36.71;101244.63;6184061;23;20384;-84
2023/06/07 07:27:54;;;;;;;18.20;11.37;;;;;;;39.42;36.83;101249.56;6183834;23;20442;-89
2023/06/07 07:30:20;;;;;;;15.27;10.90;;;;;;;39.48;36.36;101273.56;6184165;23;20412;-91
2023/06/07 07:32:46;;;;;;;13.33;10.30;;;;;;;39.55;36.28;101273.16;6182918;23;20459;-91
2023/06/07 07:35:12;;;;;;;18.23;10.80;;;;;;;39.60;36.82;101286.63;6182439;23;20384;-85
2023/06/07 07:37:39;;;;;;;15.37;11.07;;;;;;;39.62;36.98;101292.56;6183408;23;20415;-88
2023/06/07 07:40:08;;;;;;;17.80;11.03;;;;;;;39.65;36.32;101283.78;6183701;23;20380;-87
2023/06/07 07:42:35;;;;;;;21.33;10.90;;;;;;;39.71;36.58;101281.75;6183562;23;20392;-87
2023/06/07 07:45:01;;;;;;;18.37;12.10;;;;;;;39.75;36.37;101291.69;6182837;23;20449;-89
2023/06/07 07:47:27;;;;;;;16.73;10.90;;;;;;;39.77;36.43;101283.22;6183655;23;20411;-90
2023/06/07 07:49:53;;;;;;;19.53;13.40;;;;;;;39.80;36.27;101288.06;6181356;23;20435;-86
2023/06/07 07:52:19;;;;;;;17.40;12.03;;;;;;;39.83;36.40;101286.63;6180603;23;20208;-85
2023/06/07 07:54:45;;;;;;;15.27;12.10;;;;;;;39.86;36.19;101294.16;6181107;23;20423;-87
2023/06/07 07:57:11;;;;;;;18.27;12.27;;;;;;;39.95;36.30;101305.88;6181018;23;20446;-87
2023/06/07 07:59:37;;;;;;;17.80;10.73;;;;;;;39.93;36.13;101305.41;6181433;23;20392;-87
2023/06/07 08:02:03;;;;;;;17.17;12.50;;;;;;;39.93;36.06;101313.53;6181066;23;20169;-87
2023/06/07 08:04:30;;;;;;;17.60;12.63;;;;;;;39.90;36.59;101316.88;6182128;23;20723;-86
2023/06/07 08:06:56;;;;;;;20.80;14.67;;;;;;;39.91;36.26;101318.50;6182024;23;20844;-92
2023/06/07 08:09:22;;;;;;;23.90;16.40;;;;;;;39.82;36.40;101321.13;6183417;23;20428;-88
2023/06/07 08:11:49;;;;;;;19.63;13.27;;;;;;;39.79;36.35;101323.69;6181738;23;20937;-90
2023/06/07 08:14:16;;;;;;;16.93;14.00;;;;;;;39.82;36.42;101323.84;6183616;23;20491;-89
2023/06/07 08:16:44;;;;;;;22.30;16.40;;;;;;;39.86;36.53;101334.91;6183793;23;20388;-90
2023/06/07 08:19:10;;;;;;;24.83;14.47;;;;;;;39.88;36.82;101340.81;6182041;23;20392;-90
2023/06/07 08:21:37;;;;;;;17.73;12.60;;;;;;;39.85;36.55;101341.47;6182471;23;20411;-88
2023/06/07 08:24:04;;;;;;;19.30;14.10;;;;;;;39.91;36.33;101345.66;6181142;23;20767;-88
2023/06/07 08:26:30;;;;;;;18.13;11.17;;;;;;;39.83;36.34;101338.22;6181644;23;20395;-87
2023/06/07 08:28:56;;;;;;;19.80;13.70;;;;;;;39.80;36.45;101345.09;6182144;23;20697;-89
2023/06/07 08:31:22;;;;;;;16.07;10.80;;;;;;;39.82;36.58;101350.22;6179749;23;20880;-86
2023/06/07 08:33:49;;;;;;;16.13;11.30;;;;;;;39.87;36.71;101350.09;6180732;23;20391;-86
2023/06/07 08:36:15;;;;;;;22.53;15.37;;;;;;;39.87;36.59;101353.59;6182804;23;20396;-83
2023/06/07 08:38:42;;;;;;;18.23;13.77;;;;;;;39.94;36.82;101358.59;6182876;23;20401;-88
2023/06/07 08:41:28;;;;;;;14.93;11.63;;;;;;;39.94;36.41;101361.31;6181973;23;20383;-88
2023/06/07 08:43:54;;;;;;;21.43;10.93;;;;;;;39.93;36.31;101357.81;6172329;23;20515;-83
2023/06/07 08:46:23;;;;;;;17.77;11.60;;;;;;;40.00;36.32;101365.53;6182350;23;20391;-86
2023/06/07 08:48:49;;;;;;;19.40;11.77;;;;;;;39.98;36.62;101365.84;6182509;23;20896;-85
2023/06/07 08:51:17;;;;;;;25.73;13.30;;;;;;;40.00;36.50;101373.69;6182414;23;20392;-87
2023/06/07 08:53:55;;;;;;;18.77;14.47;;;;;;;39.97;36.09;101371.59;6182353;23;20381;-86
2023/06/07 08:56:24;;;;;;;17.13;13.47;;;;;;;39.99;36.16;101375.59;6182046;23;20404;-86
2023/06/07 08:58:51;;;;;;;19.77;12.80;;;;;;;39.90;36.50;101371.19;6182391;23;20384;-87
2023/06/07 09:01:20;;;;;;;19.70;14.03;;;;;;;39.90;36.58;101376.63;6182866;23;20391;-84
2023/06/07 09:03:53;;;;;;;17.70;13.80;;;;;;;39.91;36.60;101379.06;6182907;23;20440;-84
2023/06/07 09:06:21;;;;;;;16.10;11.80;;;;;;;40.00;36.62;101381.81;6175325;23;20385;-85
2023/06/07 09:08:47;;;;;;;19.33;12.50;;;;;;;40.03;36.25;101387.47;6182061;23;20866;-84
2023/06/07 09:11:17;;;;;;;17.90;13.73;;;;;;;39.99;36.39;101385.66;6183701;23;20395;-86
2023/06/07 09:13:43;;;;;;;22.70;15.00;;;;;;;40.02;36.16;101385.03;6182979;23;20799;-85
2023/06/07 09:16:12;;;;;;;20.57;16.87;;;;;;;39.95;36.13;101373.78;6183545;23;20380;-85
2023/06/07 09:18:45;;;;;;;21.17;14.70;;;;;;;39.99;36.05;101385.66;6183628;23;20376;-85
2023/06/07 09:21:27;;;;;;;20.23;15.00;;;;;;;40.04;36.44;101372.00;6182635;23;20458;-84
2023/06/07 09:23:55;;;;;;;21.50;14.60;;;;;;;40.05;36.36;101364.63;6183514;23;20453;-84
2023/06/07 09:26:22;;;;;;;23.50;16.20;;;;;;;40.09;36.10;101369.16;6184090;23;20385;-85
2023/06/07 09:28:49;;;;;;;35.47;19.23;;;;;;;40.02;36.53;101360.56;6183630;23;20384;-86
2023/06/07 09:31:36;;;;;;;26.47;19.53;;;;;;;40.11;36.15;101358.75;6184285;23;20387;-84
2023/06/07 09:34:31;;;;;;;26.77;19.57;;;;;;;40.31;36.19;101353.94;6184101;23;20844;-84
2023/06/07 09:36:58;;;;;;;29.33;22.23;;;;;;;40.36;36.07;101356.50;6171239;23;20400;-88
2023/06/07 09:39:29;;;;;;;36.27;23.13;;;;;;;40.35;35.65;101349.47;6184043;23;20865;-86
2023/06/07 09:41:58;;;;;;;31.03;20.17;;;;;;;40.34;36.14;101350.59;6184166;23;20388;-86
2023/06/07 09:44:30;;;;;;;28.67;18.63;;;;;;;40.46;36.36;101346.19;6184220;23;20420;-83
2023/06/07 09:46:57;;;;;;;38.30;23.50;;;;;;;40.49;36.32;101340.13;6182592;23;20450;-88
2023/06/07 09:49:34;;;;;;;27.80;22.37;;;;;;;40.59;36.12;101349.16;6183148;23;20710;-88
2023/06/07 09:52:05;;;;;;;26.77;19.50;;;;;;;40.54;36.59;101350.88;6184192;23;20475;-89
2023/06/07 09:54:36;;;;;;;18.60;11.20;;;;;;;40.53;36.23;101348.47;6182954;23;20845;-88
2023/06/07 09:57:08;;;;;;;26.97;13.50;;;;;;;40.46;35.98;101357.06;6184198;23;20396;-88
2023/06/07 09:59:36;;;;;;;19.23;13.37;;;;;;;40.36;36.58;101345.66;6183246;23;20395;-88
2023/06/07 10:02:02;;;;;;;20.97;10.43;;;;;;;40.42;36.30;101353.34;6184091;23;20404;-88
2023/06/07 10:04:28;;;;;;;12.97;8.77;;;;;;;40.50;35.70;101352.63;6183984;23;20416;-88
2023/06/07 10:06:57;;;;;;;13.00;8.23;;;;;;;40.57;35.90;101357.59;6184802;23;20418;-88
2023/06/07 10:09:28;;;;;;;15.90;8.77;;;;;;;40.57;35.83;101360.31;6184282;23;20396;-86
2023/06/07 10:11:57;;;;;;;18.00;10.27;;;;;;;40.66;35.59;101355.75;6183917;23;20424;-86
2023/06/07 10:14:33;;;;;;;15.73;8.50;;;;;;;40.65;35.59;101361.50;6184241;23;20483;-88
2023/06/07 10:17:10;;;;;;;18.50;9.50;;;;;;;40.67;35.68;101365.50;6184277;23;20412;-88
2023/06/07 10:19:49;;;;;;;23.37;12.70;;;;;;;40.73;35.75;101363.44;6182678;23;20391;-88
2023/06/07 10:22:20;;;;;;;18.03;10.90;;;;;;;40.81;35.42;101371.63;6182869;23;20770;-87
2023/06/07 10:25:13;;;;;;;17.90;11.60;;;;;;;40.84;35.43;101383.81;6187999;23;20391;-86
2023/06/07 10:28:05;;;;;;;14.47;8.93;;;;;;;40.88;35.35;101381.25;6188154;23;20399;-86
2023/06/07 10:30:34;;;;;;;15.10;9.90;;;;;;;40.89;35.42;101375.50;6187809;23;20387;-87
2023/06/07 10:33:07;;;;;;;17.97;10.67;;;;;;;40.94;35.32;101367.22;6187101;23;20426;-84
2023/06/07 10:35:34;;;;;;;13.17;10.13;;;;;;;40.96;35.60;101362.28;6188724;23;20419;-88
2023/06/07 10:38:00;;;;;;;17.03;7.33;;;;;;;41.03;35.51;101359.91;6189263;23;20411;-88
2023/06/07 10:40:26;;;;;;;17.67;10.27;;;;;;;40.96;35.32;101358.75;6187469;23;20461;-87
2023/06/07 10:42:55;;;;;;;16.30;8.03;;;;;;;40.91;35.51;101348.03;6188248;23;20380;-88
2023/06/07 10:45:21;;;;;;;15.13;11.80;;;;;;;41.04;35.40;101357.97;6215249;23;20410;-88
2023/06/07 10:47:47;;;;;;;17.73;9.90;;;;;;;41.06;35.27;101355.72;6189005;23;20384;-86
2023/06/07 10:50:32;;;;;;;17.33;11.33;;;;;;;41.02;35.21;101354.78;6187985;23;20864;-87
2023/06/07 10:53:02;;;;;;;16.70;12.13;;;;;;;40.95;35.70;101347.06;6215474;23;20179;-86
2023/06/07 10:55:33;;;;;;;12.57;9.30;;;;;;;41.04;35.43;101349.81;6188163;23;20730;-86
2023/06/07 10:58:00;;;;;;;17.73;12.10;;;;;;;41.14;35.84;101354.97;6188732;23;20399;-88
2023/06/07 11:00:31;;;;;;;22.13;12.17;;;;;;;41.12;35.87;101351.75;6188090;23;20383;-86
2023/06/07 11:03:16;;;;;;;13.50;11.87;;;;;;;41.15;35.70;101362.00;6188505;23;20410;-87
2023/06/07 11:05:54;;;;;;;16.40;10.53;;;;;;;41.18;35.84;101366.00;6188098;23;20383;-88
2023/06/07 11:08:30;;;;;;;18.63;13.03;;;;;;;41.14;36.08;101357.69;6187210;23;20411;-88
2023/06/07 11:11:03;;;;;;;16.13;9.67;;;;;;;41.11;35.60;101352.88;6187623;23;20387;-87
2023/06/07 11:13:44;;;;;;;20.50;10.90;;;;;;;41.18;35.60;101361.34;6187536;23;20465;-88
2023/06/07 11:16:33;;;;;;;14.53;8.50;;;;;;;41.23;35.58;101368.59;6188618;23;20844;-86